Terminal Aerodrome Forecast
Issued by NWS

Home | Current Version | Previous Version | Graphics & Text | Print | Product List | Glossary On
Versions: 1 2 3 4 5 6 7 8 9 10 11 12 13 14 15 16 17 18 19 20 21 22 23 24
000
FTUS43 KBIS 290500
TAFJMS
TAF
KJMS 290524Z 2906/3006 33013KT P6SM SCT016 OVC022
     FM291000 30005KT P6SM OVC018
     FM291600 17008KT P6SM SCT025 BKN250
     FM292000 19010KT P6SM BKN080
     FM300200 23008KT P6SM BKN035 OVC080=

USA.gov is the U.S. government's official web portal to all federal, state and local government web resources and services.